Wijchen, Netherlands
Current Conditions -  °F | °C
As of 2:25 AM on Thursday 27 Nov 2014 (Local Time) from EHVK Reporting Station
Haze Haze  
Wind Chill: 40°   Ceiling: 1100
Heat Index: 45°   Visibility: 6mi
Dew Point: 41°   Wind: 8mph
Humidity: 87%   Direction: 120°ESE
Pressure: 29.83"   Gusts: NA
Location:  51.81°N, 5.73°E
Report Text: EHVK 270125Z AUTO 12007KT 9000 BR OVC011 07/05 Q1010 GRN
Loading
Personal Weather Stations






























Interactive Weather Map New forecast layout! Learn more

10-Day Weather Forecast

Advertisements
Track Severe Weather on mobile